createdAt,value
2019-03-28T00:01:43.599Z,101116.88
2019-03-28T00:04:12.199Z,101116.84
2019-03-28T00:06:40.827Z,101113.21
2019-03-28T00:09:09.502Z,101111.80
2019-03-28T00:11:38.243Z,101114.35
2019-03-28T00:14:06.821Z,101106.60
2019-03-28T00:16:35.480Z,101104.51
2019-03-28T00:19:04.030Z,101102.74
2019-03-28T00:21:32.677Z,101099.87
2019-03-28T00:24:20.825Z,101098.98
2019-03-28T00:26:49.462Z,101095.09
2019-03-28T00:29:18.101Z,101099.22
2019-03-28T00:31:48.032Z,101097.26
2019-03-28T00:34:16.924Z,101093.95
2019-03-28T00:36:45.581Z,101098.37
2019-03-28T00:39:15.785Z,101093.34
2019-03-28T00:41:45.126Z,101091.60
2019-03-28T00:44:14.066Z,101089.91
2019-03-28T00:46:42.660Z,101093.23
2019-03-28T00:49:11.267Z,101093.98
2019-03-28T00:51:43.013Z,101094.16
2019-03-28T00:54:10.426Z,101092.59
2019-03-28T00:56:46.962Z,101095.30
2019-03-28T00:59:19.961Z,101094.05
2019-03-28T01:01:48.592Z,101094.44
2019-03-28T01:04:17.144Z,101105.56
2019-03-28T01:06:45.751Z,101100.95
2019-03-28T01:09:14.405Z,101096.34
2019-03-28T01:11:43.005Z,101095.00
2019-03-28T01:14:11.597Z,101095.52
2019-03-28T01:16:40.166Z,101101.67
2019-03-28T01:19:08.765Z,101103.38
2019-03-28T01:21:37.411Z,101103.02
2019-03-28T01:24:05.980Z,101103.89
2019-03-28T01:26:34.613Z,101105.17
2019-03-28T01:29:03.229Z,101103.14
2019-03-28T01:31:31.846Z,101109.19
2019-03-28T01:34:00.470Z,101105.46
2019-03-28T01:36:29.061Z,101100.27
2019-03-28T01:38:57.710Z,101095.55
2019-03-28T01:41:26.318Z,101094.89
2019-03-28T01:43:54.908Z,101092.64
2019-03-28T01:46:23.522Z,101094.05
2019-03-28T01:48:52.410Z,101087.27
2019-03-28T01:51:21.046Z,101080.60
2019-03-28T01:53:49.666Z,101079.78
2019-03-28T01:56:18.278Z,101080.41
2019-03-28T01:58:46.885Z,101078.17
2019-03-28T02:01:15.538Z,101080.75
2019-03-28T02:03:44.130Z,101084.77
2019-03-28T02:06:12.718Z,101083.20
2019-03-28T02:08:41.398Z,101085.03
2019-03-28T02:11:10.056Z,101084.14
2019-03-28T02:13:38.633Z,101094.73
2019-03-28T02:16:07.216Z,101100.86
2019-03-28T02:18:35.860Z,101098.13
2019-03-28T02:21:04.463Z,101105.67
2019-03-28T02:23:33.019Z,101110.95
2019-03-28T02:26:01.644Z,101111.14
2019-03-28T02:28:30.597Z,101106.03
2019-03-28T02:30:59.377Z,101108.15
2019-03-28T02:33:28.037Z,101107.78
2019-03-28T02:35:56.649Z,101101.92
2019-03-28T02:38:25.243Z,101102.86
2019-03-28T02:40:53.832Z,101108.25
2019-03-28T02:43:22.462Z,101109.06
2019-03-28T02:45:51.112Z,101100.63
2019-03-28T02:48:19.718Z,101102.29
2019-03-28T02:50:48.377Z,101101.18
2019-03-28T02:53:16.990Z,101096.30
2019-03-28T02:55:50.805Z,101094.42
2019-03-28T02:58:19.457Z,101082.46
2019-03-28T03:00:48.521Z,101084.11
2019-03-28T03:03:17.411Z,101083.96
2019-03-28T03:05:46.016Z,101082.26
2019-03-28T03:08:14.615Z,101083.28
2019-03-28T03:10:46.213Z,101081.84
2019-03-28T03:13:15.186Z,101088.70
2019-03-28T03:15:43.788Z,101090.22
2019-03-28T03:18:12.449Z,101088.86
2019-03-28T03:20:41.080Z,101092.21
2019-03-28T03:23:09.686Z,101092.14
2019-03-28T03:25:38.282Z,101084.52
2019-03-28T03:28:06.919Z,101088.39
2019-03-28T03:30:35.561Z,101086.66
2019-03-28T03:33:04.328Z,101092.88
2019-03-28T03:35:32.985Z,101092.48
2019-03-28T03:38:01.663Z,101096.16
2019-03-28T03:40:30.379Z,101101.20
2019-03-28T03:42:58.874Z,101106.28
2019-03-28T03:45:27.484Z,101106.59
2019-03-28T03:47:56.142Z,101108.27
2019-03-28T03:50:29.013Z,101109.89
2019-03-28T03:52:59.141Z,101104.52
2019-03-28T03:55:27.698Z,101101.28
2019-03-28T03:58:13.824Z,101112.91
2019-03-28T04:00:35.266Z,101107.53
2019-03-28T04:03:04.823Z,101113.27
2019-03-28T04:05:33.417Z,101118.00
2019-03-28T04:08:01.997Z,101117.25
2019-03-28T04:10:30.634Z,101115.64
2019-03-28T04:12:59.216Z,101120.03
2019-03-28T04:15:27.859Z,101116.15
2019-03-28T04:17:56.462Z,101114.80
2019-03-28T04:20:25.392Z,101119.59
2019-03-28T04:22:53.985Z,101121.99
2019-03-28T04:25:22.537Z,101125.12
2019-03-28T04:27:51.152Z,101127.88
2019-03-28T04:30:34.794Z,101134.40
2019-03-28T04:33:03.387Z,101133.24
2019-03-28T04:35:31.956Z,101132.64
2019-03-28T04:38:00.574Z,101126.81
2019-03-28T04:40:48.367Z,101128.28
2019-03-28T04:43:16.999Z,101129.68
2019-03-28T04:45:45.579Z,101132.58
2019-03-28T04:48:14.225Z,101136.33
2019-03-28T04:50:43.005Z,101128.27
2019-03-28T04:53:11.750Z,101132.81
2019-03-28T04:55:40.364Z,101134.09
2019-03-28T04:58:08.996Z,101137.80
2019-03-28T05:00:37.746Z,101141.75
2019-03-28T05:03:06.395Z,101143.16
2019-03-28T05:05:34.982Z,101151.20
2019-03-28T05:08:03.850Z,101149.14
2019-03-28T05:11:02.740Z,101144.97
2019-03-28T05:13:31.377Z,101151.50
2019-03-28T05:16:00.016Z,101152.11
2019-03-28T05:18:28.668Z,101149.30
2019-03-28T05:20:57.321Z,101154.12
2019-03-28T05:23:25.926Z,101154.50
2019-03-28T05:25:54.554Z,101156.02
2019-03-28T05:28:23.202Z,101160.50
2019-03-28T05:31:06.922Z,101158.92
2019-03-28T05:33:37.257Z,101160.55
2019-03-28T05:36:05.897Z,101167.86
2019-03-28T05:38:34.537Z,101168.44
2019-03-28T05:41:03.158Z,101173.66
2019-03-28T05:43:31.961Z,101176.16
2019-03-28T05:46:00.643Z,101172.69
2019-03-28T05:48:29.345Z,101175.42
2019-03-28T05:50:57.951Z,101177.81
2019-03-28T05:53:26.724Z,101177.69
2019-03-28T05:55:55.473Z,101173.80
2019-03-28T05:58:24.112Z,101172.55
2019-03-28T06:00:52.757Z,101172.69
2019-03-28T06:03:21.510Z,101170.82
2019-03-28T06:05:50.167Z,101179.13
2019-03-28T06:08:18.793Z,101176.02
2019-03-28T06:10:48.129Z,101181.70
2019-03-28T06:13:16.753Z,101180.06
2019-03-28T06:15:45.325Z,101185.78
2019-03-28T06:18:14.073Z,101187.50
2019-03-28T06:20:43.096Z,101184.86
2019-03-28T06:23:11.673Z,101181.16
2019-03-28T06:25:41.024Z,101184.52
2019-03-28T06:28:09.773Z,101181.77
2019-03-28T06:30:38.376Z,101178.25
2019-03-28T06:33:06.988Z,101181.68
2019-03-28T06:35:35.524Z,101181.32
2019-03-28T06:38:04.114Z,101179.36
2019-03-28T06:40:32.714Z,101182.37
2019-03-28T06:43:01.389Z,101185.48
2019-03-28T06:45:29.994Z,101182.42
2019-03-28T06:47:58.588Z,101183.92
2019-03-28T06:50:27.162Z,101186.25
2019-03-28T06:52:57.175Z,101181.53
2019-03-28T06:55:27.575Z,101177.14
2019-03-28T06:57:56.154Z,101175.94
2019-03-28T07:00:24.732Z,101179.37
2019-03-28T07:02:53.380Z,101175.59
2019-03-28T07:05:22.338Z,101180.29
2019-03-28T07:07:54.106Z,101184.78
2019-03-28T07:10:22.774Z,101179.89
2019-03-28T07:12:51.392Z,101181.14
2019-03-28T07:15:20.599Z,101178.52
2019-03-28T07:17:49.649Z,101179.16
2019-03-28T07:20:18.251Z,101169.44
2019-03-28T07:22:47.074Z,101173.94
2019-03-28T07:25:15.724Z,101171.52
2019-03-28T07:27:44.314Z,101174.75
2019-03-28T07:30:13.964Z,101180.30
2019-03-28T07:32:43.647Z,101185.28
2019-03-28T07:35:12.607Z,101182.02
2019-03-28T07:37:41.132Z,101185.86
2019-03-28T07:40:09.754Z,101188.08
2019-03-28T07:42:38.339Z,101180.31
2019-03-28T07:45:07.843Z,101181.66
2019-03-28T07:47:36.515Z,101181.84
2019-03-28T07:50:07.183Z,101177.70
2019-03-28T07:52:35.794Z,101174.31
2019-03-28T07:55:05.621Z,101173.51
2019-03-28T07:57:34.465Z,101176.25
2019-03-28T08:00:09.115Z,101167.89
2019-03-28T08:02:37.756Z,101170.64
2019-03-28T08:05:08.392Z,101165.70
2019-03-28T08:07:44.850Z,101165.14
2019-03-28T08:10:09.069Z,101163.91
2019-03-28T08:12:37.671Z,101167.03
2019-03-28T08:15:07.704Z,101164.64
2019-03-28T08:17:36.284Z,101161.58
2019-03-28T08:20:10.962Z,101159.75
2019-03-28T08:22:39.614Z,101162.53
2019-03-28T08:25:11.640Z,101165.50
2019-03-28T08:27:40.241Z,101158.91
2019-03-28T08:30:18.096Z,101178.61
2019-03-28T08:32:40.461Z,101135.96
2019-03-28T08:35:09.179Z,101117.98
2019-03-28T08:37:37.964Z,101138.78
2019-03-28T08:40:07.592Z,101149.69
2019-03-28T08:42:36.191Z,101140.58
2019-03-28T08:45:07.088Z,101151.81
2019-03-28T08:47:35.920Z,101140.39
2019-03-28T08:50:05.728Z,101123.41
2019-03-28T08:52:34.387Z,101156.69
2019-03-28T08:55:02.999Z,101137.85
2019-03-28T08:57:31.583Z,101131.03
2019-03-28T09:00:00.440Z,101127.11
2019-03-28T09:02:29.064Z,101125.86
2019-03-28T09:04:57.671Z,101115.17
2019-03-28T09:07:26.245Z,101119.14
2019-03-28T09:09:54.895Z,101115.44
2019-03-28T09:12:23.499Z,101105.78
2019-03-28T09:14:52.108Z,101102.63
2019-03-28T09:17:23.708Z,101104.16
2019-03-28T09:19:51.374Z,101102.56
2019-03-28T09:22:20.082Z,101104.84
2019-03-28T09:24:48.668Z,101102.91
2019-03-28T09:27:17.258Z,101099.77
2019-03-28T09:29:45.886Z,101094.33
2019-03-28T09:32:14.538Z,101083.94
2019-03-28T09:34:43.180Z,101086.58
2019-03-28T09:37:11.778Z,101081.67
2019-03-28T09:39:40.385Z,101071.93
2019-03-28T09:42:08.968Z,101066.17
2019-03-28T09:44:37.693Z,101066.05
2019-03-28T09:47:06.355Z,101069.78
2019-03-28T09:49:34.943Z,101082.40
2019-03-28T09:52:03.548Z,101074.68
2019-03-28T09:54:32.138Z,101079.80
2019-03-28T09:57:00.749Z,101070.43
2019-03-28T09:59:29.344Z,101070.16
2019-03-28T10:01:57.974Z,101065.30
2019-03-28T10:04:26.568Z,101071.19
2019-03-28T10:06:55.178Z,101072.56
2019-03-28T10:09:23.789Z,101068.17
2019-03-28T10:11:52.432Z,101074.50
2019-03-28T10:14:21.013Z,101075.00
2019-03-28T10:16:49.643Z,101076.55
2019-03-28T10:19:18.222Z,101071.12
2019-03-28T10:21:46.856Z,101071.45
2019-03-28T10:24:15.488Z,101063.97
2019-03-28T10:26:44.159Z,101067.92
2019-03-28T10:29:12.715Z,101071.72
2019-03-28T10:31:41.521Z,101069.79
2019-03-28T10:34:10.223Z,101074.60
2019-03-28T10:36:58.057Z,101075.18
2019-03-28T10:39:26.721Z,101078.41
2019-03-28T10:41:55.386Z,101075.69
2019-03-28T10:44:23.995Z,101075.83
2019-03-28T10:46:52.612Z,101078.84
2019-03-28T10:49:21.405Z,101081.09
2019-03-28T10:51:50.226Z,101084.18
2019-03-28T10:54:20.990Z,101082.64
2019-03-28T10:56:53.717Z,101083.55
2019-03-28T10:59:44.587Z,101077.91
2019-03-28T11:02:13.282Z,101081.58
2019-03-28T11:04:41.872Z,101080.39
2019-03-28T11:07:10.462Z,101079.72
2019-03-28T11:09:44.164Z,101080.41
2019-03-28T11:12:12.771Z,101080.78
2019-03-28T11:14:41.409Z,101082.34
2019-03-28T11:17:10.049Z,101081.94
2019-03-28T11:19:38.908Z,101084.84
2019-03-28T11:22:07.505Z,101085.51
2019-03-28T11:24:36.051Z,101083.53
2019-03-28T11:27:06.927Z,101082.02
2019-03-28T11:29:35.740Z,101083.12
2019-03-28T11:32:04.372Z,101080.52
2019-03-28T11:34:33.007Z,101075.64
2019-03-28T11:37:01.627Z,101073.57
2019-03-28T11:39:40.286Z,101073.34
2019-03-28T11:42:08.913Z,101071.20
2019-03-28T11:44:37.531Z,101074.73
2019-03-28T11:47:06.183Z,101050.02
2019-03-28T11:49:34.807Z,101072.84
2019-03-28T11:52:03.429Z,101066.55
2019-03-28T11:54:32.061Z,101061.34
2019-03-28T11:57:00.819Z,101060.53
2019-03-28T11:59:34.747Z,101054.65
2019-03-28T12:02:19.326Z,101047.88
2019-03-28T12:04:33.888Z,101045.35
2019-03-28T12:07:02.782Z,101044.75
2019-03-28T12:09:31.646Z,101039.59
2019-03-28T12:12:00.293Z,101037.39
2019-03-28T12:14:28.999Z,101044.01
2019-03-28T12:16:57.699Z,101042.62
2019-03-28T12:19:31.410Z,101048.66
2019-03-28T12:21:59.995Z,101043.77
2019-03-28T12:24:28.615Z,101034.92
2019-03-28T12:26:57.248Z,101034.94
2019-03-28T12:29:25.949Z,101022.95
2019-03-28T12:31:54.586Z,101027.52
2019-03-28T12:34:23.224Z,101025.72
2019-03-28T12:36:51.907Z,101020.51
2019-03-28T12:39:20.905Z,101017.64
2019-03-28T12:41:49.699Z,101019.93
2019-03-28T12:44:18.316Z,101014.22
2019-03-28T12:46:46.959Z,101014.98
2019-03-28T12:49:32.910Z,101015.03
2019-03-28T12:52:01.528Z,101017.89
2019-03-28T12:54:30.191Z,101013.28
2019-03-28T12:56:58.984Z,101015.26
2019-03-28T12:59:27.718Z,101013.75
2019-03-28T13:01:56.378Z,101014.84
2019-03-28T13:04:24.952Z,101011.21
2019-03-28T13:06:53.627Z,101013.09
2019-03-28T13:09:22.283Z,101008.03
2019-03-28T13:11:50.881Z,101011.05
2019-03-28T13:14:19.496Z,101011.09
2019-03-28T13:16:48.125Z,101014.00
2019-03-28T13:19:16.735Z,101008.75
2019-03-28T13:21:45.350Z,101014.83
2019-03-28T13:24:14.039Z,101016.47
2019-03-28T13:26:42.607Z,101012.24
2019-03-28T13:29:11.252Z,101015.51
2019-03-28T13:31:39.910Z,101013.55
2019-03-28T13:34:08.593Z,101016.48
2019-03-28T13:36:37.211Z,101015.50
2019-03-28T13:39:07.358Z,101013.50
2019-03-28T13:41:35.994Z,101009.44
2019-03-28T13:44:04.594Z,101011.00
2019-03-28T13:46:33.222Z,101006.45
2019-03-28T13:49:01.802Z,101003.52
2019-03-28T13:51:30.422Z,101000.68
2019-03-28T13:53:58.991Z,101001.12
2019-03-28T13:56:27.625Z,101002.67
2019-03-28T13:59:01.428Z,100999.63
2019-03-28T14:01:30.085Z,101002.97
2019-03-28T14:03:58.724Z,101005.16
2019-03-28T14:06:27.387Z,101003.36
2019-03-28T14:08:55.961Z,101002.59
2019-03-28T14:11:24.599Z,101007.52
2019-03-28T14:13:53.169Z,101008.05
2019-03-28T14:16:21.810Z,101006.41
2019-03-28T14:18:52.459Z,100995.91
2019-03-28T14:21:21.086Z,100995.91
2019-03-28T14:23:49.712Z,101002.33
2019-03-28T14:26:18.608Z,101000.70
2019-03-28T14:28:47.258Z,100999.91
2019-03-28T14:31:15.903Z,100997.61
2019-03-28T14:33:44.551Z,100998.89
2019-03-28T14:36:13.103Z,100995.25
2019-03-28T14:38:41.786Z,100997.23
2019-03-28T14:41:10.385Z,100997.06
2019-03-28T14:43:38.972Z,101000.52
2019-03-28T14:46:07.683Z,100994.73
2019-03-28T14:48:36.425Z,101001.55
2019-03-28T14:51:05.608Z,101001.08
2019-03-28T14:53:34.419Z,100999.09
2019-03-28T14:56:03.557Z,100995.62
2019-03-28T14:58:33.060Z,100996.14
2019-03-28T15:01:01.659Z,100993.30
2019-03-28T15:03:30.363Z,100993.48
2019-03-28T15:05:59.022Z,100994.28
2019-03-28T15:08:27.667Z,100991.34
2019-03-28T15:10:56.293Z,100995.84
2019-03-28T15:13:24.936Z,100999.50
2019-03-28T15:15:53.489Z,100999.37
2019-03-28T15:18:22.055Z,100994.23
2019-03-28T15:20:50.722Z,100996.55
2019-03-28T15:23:19.350Z,100986.70
2019-03-28T15:25:56.222Z,100988.98
2019-03-28T15:28:24.785Z,100984.79
2019-03-28T15:30:53.444Z,100986.42
2019-03-28T15:33:22.072Z,100986.89
2019-03-28T15:35:50.758Z,100991.73
2019-03-28T15:38:19.384Z,100989.09
2019-03-28T15:40:48.101Z,100984.41
2019-03-28T15:43:16.773Z,100985.52
2019-03-28T15:45:45.462Z,100988.89
2019-03-28T15:48:14.096Z,100982.61
2019-03-28T15:50:42.741Z,100981.30
2019-03-28T15:53:11.355Z,100981.48
2019-03-28T15:55:39.945Z,100982.22
2019-03-28T15:58:22.125Z,100984.71
2019-03-28T16:00:39.137Z,100987.89
2019-03-28T16:03:08.411Z,100987.94
2019-03-28T16:05:37.102Z,100988.43
2019-03-28T16:08:05.835Z,100986.30
2019-03-28T16:10:34.446Z,100984.14
2019-03-28T16:13:03.141Z,100985.17
2019-03-28T16:15:31.749Z,100990.45
2019-03-28T16:18:00.630Z,100986.16
2019-03-28T16:20:29.421Z,100994.99
2019-03-28T16:22:58.159Z,100994.19
2019-03-28T16:25:26.792Z,100998.98
2019-03-28T16:27:56.791Z,100993.02
2019-03-28T16:30:49.216Z,100995.84
2019-03-28T16:33:17.844Z,100996.98
2019-03-28T16:35:46.399Z,100998.17
2019-03-28T16:38:14.973Z,101006.66
2019-03-28T16:40:43.609Z,101005.64
2019-03-28T16:43:12.249Z,101007.95
2019-03-28T16:45:40.929Z,101007.31
2019-03-28T16:48:09.586Z,101004.80
2019-03-28T16:50:38.315Z,101003.81
2019-03-28T16:53:07.009Z,101003.97
2019-03-28T16:55:35.637Z,101006.31
2019-03-28T16:58:04.322Z,101003.64
2019-03-28T17:00:37.657Z,101003.16
2019-03-28T17:03:07.194Z,101002.31
2019-03-28T17:05:35.835Z,101004.81
2019-03-28T17:08:05.020Z,101002.82
2019-03-28T17:11:02.335Z,100998.67
2019-03-28T17:13:30.980Z,100996.67
2019-03-28T17:15:59.662Z,100996.52
2019-03-28T17:18:28.245Z,100996.00
2019-03-28T17:20:57.035Z,101002.50
2019-03-28T17:23:25.670Z,101001.98
2019-03-28T17:25:54.251Z,100993.16
2019-03-28T17:28:23.024Z,100998.12
2019-03-28T17:30:51.640Z,101001.44
2019-03-28T17:33:21.561Z,101005.20
2019-03-28T17:35:50.573Z,101007.84
2019-03-28T17:38:19.201Z,101010.98
2019-03-28T17:40:49.595Z,101015.90
2019-03-28T17:43:18.251Z,101015.88
2019-03-28T17:45:46.965Z,101016.86
2019-03-28T17:48:15.622Z,101020.31
2019-03-28T17:50:44.282Z,101020.62
2019-03-28T17:53:12.983Z,101025.73
2019-03-28T17:55:41.601Z,101023.73
2019-03-28T17:58:10.425Z,101019.77
2019-03-28T18:00:39.910Z,101022.56
2019-03-28T18:03:09.828Z,101021.89
2019-03-28T18:05:40.666Z,101028.83
2019-03-28T18:08:09.334Z,101031.48
2019-03-28T18:10:42.999Z,101028.98
2019-03-28T18:13:11.600Z,101034.13
2019-03-28T18:15:40.230Z,101037.59
2019-03-28T18:18:11.685Z,101037.72
2019-03-28T18:20:39.610Z,101040.54
2019-03-28T18:23:08.219Z,101046.33
2019-03-28T18:25:36.855Z,101051.63
2019-03-28T18:28:05.465Z,101053.25
2019-03-28T18:30:37.252Z,101065.17
2019-03-28T18:33:04.861Z,101071.63
2019-03-28T18:35:34.157Z,101075.69
2019-03-28T18:38:03.350Z,101074.95
2019-03-28T18:40:32.110Z,101081.22
2019-03-28T18:43:01.680Z,101085.34
2019-03-28T18:45:30.441Z,101086.00
2019-03-28T18:47:59.046Z,101081.99
2019-03-28T18:50:28.110Z,101081.18
2019-03-28T18:52:56.981Z,101079.69
2019-03-28T18:55:25.586Z,101079.98
2019-03-28T18:57:54.184Z,101081.45
2019-03-28T19:00:22.961Z,101076.11
2019-03-28T19:02:51.535Z,101075.08
2019-03-28T19:05:20.501Z,101073.02
2019-03-28T19:07:49.191Z,101077.14
2019-03-28T19:10:22.876Z,101073.21
2019-03-28T19:12:51.567Z,101072.42
2019-03-28T19:15:20.313Z,101076.58
2019-03-28T19:17:48.981Z,101078.93
2019-03-28T19:20:17.598Z,101061.94
2019-03-28T19:22:46.261Z,101087.03
2019-03-28T19:25:15.569Z,101086.51
2019-03-28T19:27:45.137Z,101089.39
2019-03-28T19:30:14.460Z,101094.44
2019-03-28T19:32:43.686Z,101099.81
2019-03-28T19:35:12.777Z,101102.29
2019-03-28T19:37:42.362Z,101101.47
2019-03-28T19:40:26.730Z,101108.06
2019-03-28T19:42:55.769Z,101106.64
2019-03-28T19:45:37.854Z,101104.03
2019-03-28T19:48:08.085Z,101106.06
2019-03-28T19:50:37.197Z,101105.19
2019-03-28T19:53:06.453Z,101109.33
2019-03-28T19:55:35.599Z,101110.02
2019-03-28T19:58:05.414Z,101110.99
2019-03-28T20:00:34.330Z,101109.86
2019-03-28T20:03:03.545Z,101104.12
2019-03-28T20:05:46.455Z,101102.02
2019-03-28T20:08:14.777Z,101104.86
2019-03-28T20:10:33.376Z,101098.51
2019-03-28T20:13:05.014Z,101106.03
2019-03-28T20:15:33.362Z,101103.88
2019-03-28T20:18:02.604Z,101103.55
2019-03-28T20:20:31.209Z,101108.19
2019-03-28T20:22:59.852Z,101106.38
2019-03-28T20:25:28.762Z,101105.90
2019-03-28T20:27:57.505Z,101110.69
2019-03-28T20:30:27.752Z,101111.75
2019-03-28T20:32:56.591Z,101108.64
2019-03-28T20:35:25.187Z,101109.45
2019-03-28T20:37:53.933Z,101109.73
2019-03-28T20:40:22.606Z,101110.25
2019-03-28T20:42:51.555Z,101107.77
2019-03-28T20:45:20.321Z,101109.91
2019-03-28T20:47:49.015Z,101109.53
2019-03-28T20:50:20.232Z,101102.90
2019-03-28T20:52:48.839Z,101103.56
2019-03-28T20:55:17.447Z,101106.10
2019-03-28T20:57:46.074Z,101102.64
2019-03-28T21:00:21.841Z,101103.97
2019-03-28T21:02:50.551Z,101108.30
2019-03-28T21:05:19.396Z,101103.03
2019-03-28T21:07:47.998Z,101102.69
2019-03-28T21:10:46.852Z,101111.91
2019-03-28T21:13:15.495Z,101109.05
2019-03-28T21:15:44.109Z,101106.84
2019-03-28T21:18:12.689Z,101104.53
2019-03-28T21:20:41.420Z,101101.89
2019-03-28T21:23:10.056Z,101102.73
2019-03-28T21:25:38.681Z,101099.26
2019-03-28T21:28:07.277Z,101096.00
2019-03-28T21:30:46.614Z,101092.97
2019-03-28T21:33:06.444Z,101098.41
2019-03-28T21:35:35.117Z,101100.05
2019-03-28T21:38:04.543Z,101101.87
2019-03-28T21:40:33.179Z,101099.48
2019-03-28T21:43:01.772Z,101099.16
2019-03-28T21:45:30.388Z,101101.13
2019-03-28T21:47:59.131Z,101103.59
2019-03-28T21:51:05.005Z,101096.03
2019-03-28T21:53:33.676Z,101097.55
2019-03-28T21:56:02.298Z,101097.16
2019-03-28T21:58:31.600Z,101097.44
2019-03-28T22:01:00.306Z,101104.61
2019-03-28T22:03:28.937Z,101099.23
2019-03-28T22:05:57.510Z,101099.23
2019-03-28T22:08:26.156Z,101098.52
2019-03-28T22:11:04.880Z,101092.76
2019-03-28T22:13:33.485Z,101091.97
2019-03-28T22:16:02.975Z,101093.12
2019-03-28T22:18:31.571Z,101096.88
2019-03-28T22:21:00.228Z,101090.66
2019-03-28T22:23:28.857Z,101088.41
2019-03-28T22:25:57.488Z,101088.88
2019-03-28T22:28:26.137Z,101090.83
2019-03-28T22:30:54.768Z,101086.25
2019-03-28T22:33:23.361Z,101087.56
2019-03-28T22:35:52.108Z,101087.59
2019-03-28T22:38:20.967Z,101086.45
2019-03-28T22:40:50.042Z,101086.19
2019-03-28T22:43:18.651Z,101087.09
2019-03-28T22:45:47.354Z,101083.13
2019-03-28T22:48:15.998Z,101086.53
2019-03-28T22:50:44.614Z,101088.09
2019-03-28T22:53:13.195Z,101084.06
2019-03-28T22:55:41.804Z,101086.25
2019-03-28T22:58:10.379Z,101083.76
2019-03-28T23:00:48.060Z,101087.33
2019-03-28T23:03:17.060Z,101089.39
2019-03-28T23:05:45.969Z,101088.22
2019-03-28T23:08:14.644Z,101094.45
2019-03-28T23:10:43.244Z,101091.32
2019-03-28T23:13:11.892Z,101096.11
2019-03-28T23:15:40.441Z,101096.73
2019-03-28T23:18:09.065Z,101098.55
2019-03-28T23:20:37.693Z,101096.27
2019-03-28T23:23:06.344Z,101096.64
2019-03-28T23:25:35.005Z,101093.88
2019-03-28T23:28:03.661Z,101094.34
2019-03-28T23:30:32.244Z,101091.03
2019-03-28T23:33:00.858Z,101092.70
2019-03-28T23:35:29.411Z,101089.89
2019-03-28T23:37:58.053Z,101095.73
2019-03-28T23:40:26.683Z,101096.42
2019-03-28T23:42:55.407Z,101094.77
2019-03-28T23:45:23.972Z,101093.66
2019-03-28T23:47:52.627Z,101095.94
2019-03-28T23:50:21.213Z,101093.51
2019-03-28T23:52:49.808Z,101094.31
2019-03-28T23:55:18.977Z,101095.73
2019-03-28T23:57:47.738Z,101101.44
